createdAt,value
2019-03-01T00:01:33.354Z,26.07
2019-03-01T00:04:21.004Z,25.67
2019-03-01T00:07:37.767Z,23.97
2019-03-01T00:10:19.042Z,25.37
2019-03-01T00:13:04.875Z,27.70
2019-03-01T00:16:27.042Z,25.80
2019-03-01T00:19:18.814Z,25.10
2019-03-01T00:22:07.841Z,24.93
2019-03-01T00:25:06.667Z,26.30
2019-03-01T00:28:16.729Z,24.70
2019-03-01T00:31:09.421Z,25.47
2019-03-01T00:33:59.743Z,26.10
2019-03-01T00:36:54.698Z,23.97
2019-03-01T00:39:50.432Z,25.70
2019-03-01T00:42:38.511Z,25.50
2019-03-01T00:45:08.061Z,24.83
2019-03-01T00:47:37.209Z,28.07
2019-03-01T00:50:06.767Z,26.07
2019-03-01T00:52:36.143Z,25.63
2019-03-01T00:55:05.853Z,25.17
2019-03-01T00:57:35.256Z,26.73
2019-03-01T01:00:32.457Z,23.30
2019-03-01T01:03:01.527Z,24.33
2019-03-01T01:05:30.800Z,24.30
2019-03-01T01:08:00.446Z,24.57
2019-03-01T01:13:12.528Z,24.87
2019-03-01T01:15:54.305Z,24.40
2019-03-01T01:18:35.767Z,23.37
2019-03-01T01:21:16.537Z,25.43
2019-03-01T01:23:57.945Z,23.87
2019-03-01T01:26:39.226Z,24.07
2019-03-01T01:29:08.304Z,24.60
2019-03-01T01:31:56.465Z,24.77
2019-03-01T01:34:25.467Z,26.23
2019-03-01T01:37:13.999Z,24.37
2019-03-01T01:40:02.557Z,25.33
2019-03-01T01:42:51.157Z,23.97
2019-03-01T01:45:39.537Z,25.23
2019-03-01T01:48:27.872Z,22.50
2019-03-01T01:51:16.345Z,23.47
2019-03-01T01:54:04.626Z,26.20
2019-03-01T01:56:53.203Z,24.40
2019-03-01T01:59:41.735Z,23.07
2019-03-01T02:02:30.143Z,23.93
2019-03-01T02:05:33.187Z,25.67
2019-03-01T02:08:08.721Z,25.13
2019-03-01T02:10:57.133Z,23.17
2019-03-01T02:13:26.502Z,24.00
2019-03-01T02:16:15.045Z,24.80
2019-03-01T02:18:47.087Z,23.40
2019-03-01T02:21:16.805Z,23.77
2019-03-01T02:23:58.252Z,24.40
2019-03-01T02:26:33.939Z,23.67
2019-03-01T02:32:02.543Z,23.03
2019-03-01T02:34:32.249Z,24.17
2019-03-01T02:37:21.161Z,24.33
2019-03-01T02:40:22.429Z,24.57
2019-03-01T02:46:08.011Z,23.80
2019-03-01T02:48:56.703Z,22.80
2019-03-01T02:51:45.086Z,24.27
2019-03-01T02:54:33.507Z,23.50
2019-03-01T02:57:22.102Z,23.87
2019-03-01T03:03:07.993Z,23.83
2019-03-01T03:08:59.032Z,21.47
2019-03-01T03:11:29.196Z,22.50
2019-03-01T03:14:17.597Z,23.40
2019-03-01T03:17:06.072Z,22.37
2019-03-01T03:19:54.539Z,23.03
2019-03-01T03:22:43.005Z,22.77
2019-03-01T03:25:31.648Z,24.27
2019-03-01T03:28:20.361Z,24.00
2019-03-01T03:31:08.839Z,23.13
2019-03-01T03:33:57.259Z,24.87
2019-03-01T03:36:45.865Z,24.43
2019-03-01T03:39:34.150Z,24.33
2019-03-01T03:42:22.418Z,24.60
2019-03-01T03:45:11.227Z,23.27
2019-03-01T03:47:59.615Z,24.97
2019-03-01T03:50:41.095Z,25.23
2019-03-01T03:53:21.668Z,24.63
2019-03-01T03:56:03.324Z,23.67
2019-03-01T03:58:44.527Z,23.97
2019-03-01T04:01:25.845Z,25.27
2019-03-01T04:04:06.518Z,25.50
2019-03-01T04:06:47.123Z,23.83
2019-03-01T04:09:27.596Z,25.30
2019-03-01T04:12:08.247Z,24.60
2019-03-01T04:14:49.053Z,25.07
2019-03-01T04:17:30.083Z,26.00
2019-03-01T04:20:11.543Z,27.13
2019-03-01T04:22:52.310Z,25.63
2019-03-01T04:25:33.725Z,26.30
2019-03-01T04:28:14.840Z,24.73
2019-03-01T04:30:56.163Z,26.27
2019-03-01T04:33:37.603Z,27.80
2019-03-01T04:36:18.583Z,27.63
2019-03-01T04:38:59.826Z,25.60
2019-03-01T04:41:41.352Z,26.27
2019-03-01T04:44:21.996Z,26.20
2019-03-01T04:47:02.646Z,27.03
2019-03-01T04:49:43.584Z,27.53
2019-03-01T04:52:24.762Z,23.93
2019-03-01T04:55:05.473Z,25.83
2019-03-01T04:57:47.142Z,25.80
2019-03-01T05:00:28.663Z,27.43
2019-03-01T05:03:09.916Z,27.33
2019-03-01T05:05:51.521Z,30.03
2019-03-01T05:08:32.682Z,27.50
2019-03-01T05:11:14.126Z,32.17
2019-03-01T05:13:57.204Z,34.90
2019-03-01T05:16:35.289Z,35.43
2019-03-01T05:19:23.532Z,36.83
2019-03-01T05:22:11.713Z,38.37
2019-03-01T05:25:00.311Z,34.63
2019-03-01T05:27:48.656Z,38.27
2019-03-01T05:30:37.105Z,38.97
2019-03-01T05:33:25.342Z,41.07
2019-03-01T05:36:13.678Z,40.57
2019-03-01T05:39:02.065Z,42.20
2019-03-01T05:41:51.159Z,41.07
2019-03-01T05:44:39.532Z,43.67
2019-03-01T05:47:09.053Z,43.10
2019-03-01T05:49:57.567Z,44.10
2019-03-01T05:52:46.325Z,44.17
2019-03-01T05:55:34.701Z,42.53
2019-03-01T05:58:42.171Z,42.20
2019-03-01T06:01:23.541Z,42.77
2019-03-01T06:04:05.221Z,42.63
2019-03-01T06:06:46.881Z,40.93
2019-03-01T06:09:28.179Z,40.07
2019-03-01T06:12:35.684Z,41.83
2019-03-01T06:15:43.161Z,42.10
2019-03-01T06:18:50.637Z,40.70
2019-03-01T06:21:58.241Z,41.97
2019-03-01T06:25:05.587Z,43.87
2019-03-01T06:28:13.077Z,41.40
2019-03-01T06:31:20.469Z,40.27
2019-03-01T06:34:14.507Z,44.27
2019-03-01T06:37:07.935Z,41.10
2019-03-01T06:40:24.017Z,42.57
2019-03-01T06:43:16.025Z,42.90
2019-03-01T06:46:23.289Z,45.03
2019-03-01T06:49:33.543Z,46.63
2019-03-01T06:52:22.306Z,44.10
2019-03-01T06:55:12.723Z,48.20
2019-03-01T06:58:00.775Z,45.90
2019-03-01T07:06:38.010Z,44.53
2019-03-01T07:09:19.075Z,47.23
2019-03-01T07:12:00.131Z,47.20
2019-03-01T07:14:42.735Z,48.80
2019-03-01T07:17:23.389Z,48.80
2019-03-01T07:20:04.600Z,48.63
2019-03-01T07:22:45.388Z,47.67
2019-03-01T07:25:26.655Z,50.57
2019-03-01T07:28:08.024Z,49.43
2019-03-01T07:30:48.959Z,49.30
2019-03-01T07:33:30.286Z,50.07
2019-03-01T07:36:11.206Z,48.47
2019-03-01T07:38:51.702Z,50.50
2019-03-01T07:41:32.285Z,52.20
2019-03-01T07:44:12.900Z,49.33
2019-03-01T07:46:54.278Z,51.53
2019-03-01T07:49:35.881Z,51.07
2019-03-01T07:52:17.017Z,51.40
2019-03-01T07:54:49.531Z,51.37
2019-03-01T07:57:16.682Z,57.80
2019-03-01T07:59:45.546Z,53.63
2019-03-01T08:02:14.430Z,52.60
2019-03-01T08:04:43.386Z,54.20
2019-03-01T08:07:12.335Z,52.27
2019-03-01T08:09:44.533Z,53.53
2019-03-01T08:12:11.863Z,51.67
2019-03-01T08:14:40.860Z,56.50
2019-03-01T08:17:09.746Z,52.83
2019-03-01T08:19:38.629Z,54.07
2019-03-01T08:22:07.524Z,55.10
2019-03-01T08:24:55.871Z,52.23
2019-03-01T08:27:46.319Z,53.27
2019-03-01T08:30:34.171Z,51.63
2019-03-01T08:33:22.307Z,50.30
2019-03-01T08:36:10.476Z,51.87
2019-03-01T08:39:00.869Z,49.97
2019-03-01T08:41:48.552Z,49.30
2019-03-01T08:44:36.620Z,46.53
2019-03-01T08:47:24.758Z,50.43
2019-03-01T08:50:13.866Z,47.47
2019-03-01T08:53:02.074Z,49.57
2019-03-01T08:55:42.594Z,48.67
2019-03-01T08:58:23.896Z,52.00
2019-03-01T09:01:08.303Z,48.60
2019-03-01T09:03:47.436Z,49.50
2019-03-01T09:06:28.426Z,46.97
2019-03-01T09:09:08.974Z,49.37
2019-03-01T09:11:49.784Z,47.80
2019-03-01T09:17:13.221Z,49.30
2019-03-01T09:22:36.882Z,53.57
2019-03-01T09:25:08.685Z,51.90
2019-03-01T09:27:57.564Z,52.60
2019-03-01T09:30:46.000Z,52.70
2019-03-01T09:33:34.124Z,52.10
2019-03-01T09:36:26.322Z,53.23
2019-03-01T09:39:17.803Z,55.50
2019-03-01T09:42:06.212Z,51.80
2019-03-01T09:44:54.393Z,51.83
2019-03-01T09:47:42.566Z,52.03
2019-03-01T09:50:31.642Z,52.20
2019-03-01T09:53:20.788Z,52.87
2019-03-01T09:56:12.533Z,52.30
2019-03-01T09:58:59.375Z,51.57
2019-03-01T10:01:47.488Z,55.07
2019-03-01T10:04:35.689Z,52.20
2019-03-01T10:07:16.981Z,54.23
2019-03-01T10:09:58.345Z,53.40
2019-03-01T10:12:39.958Z,51.30
2019-03-01T10:15:21.097Z,51.37
2019-03-01T10:17:50.073Z,51.03
2019-03-01T10:20:38.508Z,53.07
2019-03-01T10:23:27.003Z,50.67
2019-03-01T10:26:15.058Z,52.60
2019-03-01T10:29:03.512Z,52.60
2019-03-01T10:31:51.848Z,52.97
2019-03-01T10:34:40.021Z,52.20
2019-03-01T10:37:09.637Z,53.50
2019-03-01T10:39:38.631Z,50.60
2019-03-01T10:42:26.716Z,50.53
2019-03-01T10:45:16.161Z,50.80
2019-03-01T10:48:04.411Z,48.70
2019-03-01T10:50:52.587Z,45.80
2019-03-01T10:53:21.554Z,41.67
2019-03-01T10:56:09.743Z,40.70
2019-03-01T10:58:58.513Z,39.13
2019-03-01T11:01:47.697Z,40.13
2019-03-01T11:04:35.914Z,39.27
2019-03-01T11:07:17.063Z,41.07
2019-03-01T11:09:58.343Z,39.80
2019-03-01T11:12:39.043Z,37.17
2019-03-01T11:15:20.342Z,39.93
2019-03-01T11:18:01.796Z,38.73
2019-03-01T11:20:42.309Z,38.77
2019-03-01T11:23:22.973Z,40.33
2019-03-01T11:26:03.971Z,39.13
2019-03-01T11:28:44.558Z,39.10
2019-03-01T11:31:25.367Z,38.83
2019-03-01T11:34:06.303Z,41.27
2019-03-01T11:39:33.565Z,39.80
2019-03-01T11:44:56.075Z,38.73
2019-03-01T11:47:36.539Z,34.93
2019-03-01T11:50:17.661Z,36.63
2019-03-01T11:52:58.913Z,35.30
2019-03-01T11:55:39.511Z,35.73
2019-03-01T11:58:20.182Z,34.97
2019-03-01T12:01:01.877Z,36.43
2019-03-01T12:03:43.051Z,36.57
2019-03-01T12:06:23.815Z,35.67
2019-03-01T12:09:04.967Z,35.97
2019-03-01T12:11:45.892Z,36.87
2019-03-01T12:14:27.023Z,37.40
2019-03-01T12:17:07.734Z,35.37
2019-03-01T12:19:49.113Z,35.80
2019-03-01T12:22:30.601Z,34.13
2019-03-01T12:25:12.502Z,36.03
2019-03-01T12:27:53.545Z,38.93
2019-03-01T12:30:34.359Z,36.23
2019-03-01T12:33:15.768Z,37.23
2019-03-01T12:35:57.208Z,35.07
2019-03-01T12:38:39.798Z,36.90
2019-03-01T13:10:42.032Z,28.10
2019-03-01T13:13:30.386Z,28.40
2019-03-01T13:16:18.632Z,26.27
2019-03-01T13:19:06.788Z,26.50
2019-03-01T13:21:54.862Z,26.63
2019-03-01T13:24:42.955Z,25.80
2019-03-01T13:27:31.082Z,25.30
2019-03-01T13:30:19.925Z,24.10
2019-03-01T13:33:08.146Z,24.67
2019-03-01T13:35:56.324Z,21.73
2019-03-01T13:38:44.450Z,19.90
2019-03-01T13:41:13.660Z,18.10
2019-03-01T13:44:04.095Z,18.77
2019-03-01T13:46:51.574Z,15.83
2019-03-01T13:49:39.626Z,14.77
2019-03-01T13:52:08.520Z,15.70
2019-03-01T13:54:56.738Z,15.07
2019-03-01T13:57:46.080Z,14.73
2019-03-01T14:00:35.186Z,12.77
2019-03-01T14:03:24.278Z,13.20
2019-03-01T14:06:13.458Z,12.90
2019-03-01T14:09:01.683Z,11.87
2019-03-01T14:11:49.906Z,12.17
2019-03-01T14:14:18.949Z,12.33
2019-03-01T14:17:07.192Z,11.77
2019-03-01T14:19:55.320Z,11.40
2019-03-01T14:22:44.092Z,10.97
2019-03-01T14:25:33.344Z,11.00
2019-03-01T14:28:21.509Z,9.70
2019-03-01T14:31:09.568Z,10.20
2019-03-01T14:33:57.710Z,9.93
2019-03-01T14:36:45.890Z,9.37
2019-03-01T14:39:34.315Z,9.03
2019-03-01T14:42:22.562Z,9.20
2019-03-01T14:44:51.700Z,8.53
2019-03-01T14:47:39.890Z,9.90
2019-03-01T14:50:30.138Z,8.67
2019-03-01T14:53:17.843Z,9.40
2019-03-01T14:55:59.747Z,10.37
2019-03-01T14:58:40.821Z,9.33
2019-03-01T15:01:23.237Z,8.67
2019-03-01T15:04:04.165Z,8.70
2019-03-01T15:06:44.957Z,8.83
2019-03-01T15:09:26.110Z,7.50
2019-03-01T15:12:07.416Z,7.83
2019-03-01T15:14:50.048Z,7.50
2019-03-01T15:17:31.189Z,7.07
2019-03-01T15:20:12.384Z,6.80
2019-03-01T15:22:41.733Z,6.50
2019-03-01T15:25:29.971Z,8.17
2019-03-01T15:28:18.201Z,6.47
2019-03-01T15:31:06.634Z,6.17
2019-03-01T15:33:54.829Z,6.43
2019-03-01T15:36:43.225Z,6.13
2019-03-01T15:39:31.687Z,6.57
2019-03-01T15:42:21.148Z,7.87
2019-03-01T15:45:10.099Z,5.80
2019-03-01T15:47:58.727Z,6.43
2019-03-01T15:50:48.308Z,5.70
2019-03-01T15:53:36.835Z,6.13
2019-03-01T15:56:25.073Z,5.90
2019-03-01T15:59:06.062Z,6.00
2019-03-01T16:01:53.865Z,6.50
2019-03-01T16:04:42.206Z,6.47
2019-03-01T16:07:23.550Z,5.53
2019-03-01T16:10:04.757Z,5.43
2019-03-01T16:12:45.929Z,5.63
2019-03-01T16:15:27.540Z,6.60
2019-03-01T16:18:08.271Z,5.93
2019-03-01T16:20:49.073Z,5.67
2019-03-01T16:23:31.105Z,7.50
2019-03-01T16:26:11.929Z,6.27
2019-03-01T16:28:52.453Z,5.50
2019-03-01T16:31:33.659Z,6.23
2019-03-01T16:34:14.756Z,6.23
2019-03-01T16:36:57.259Z,7.67
2019-03-01T16:39:39.713Z,5.83
2019-03-01T16:42:28.111Z,6.80
2019-03-01T16:45:17.713Z,7.30
2019-03-01T16:48:06.463Z,5.80
2019-03-01T16:50:54.812Z,6.00
2019-03-01T16:53:43.195Z,5.60
2019-03-01T16:56:34.538Z,5.63
2019-03-01T16:59:21.419Z,6.70
2019-03-01T17:02:09.560Z,6.40
2019-03-01T17:04:38.835Z,6.20
2019-03-01T17:07:08.273Z,6.33
2019-03-01T17:09:56.685Z,5.40
2019-03-01T17:12:26.085Z,9.10
2019-03-01T17:15:15.087Z,7.10
2019-03-01T17:17:44.650Z,6.63
2019-03-01T17:20:14.561Z,6.60
2019-03-01T17:22:44.205Z,6.60
2019-03-01T17:25:15.324Z,6.40
2019-03-01T17:27:45.024Z,7.00
2019-03-01T17:30:17.829Z,7.30
2019-03-01T17:33:06.337Z,6.73
2019-03-01T17:35:37.763Z,7.67
2019-03-01T17:38:08.324Z,6.77
2019-03-01T17:40:37.745Z,8.17
2019-03-01T17:43:06.796Z,6.60
2019-03-01T17:45:35.881Z,6.93
2019-03-01T17:48:04.863Z,7.83
2019-03-01T17:51:32.702Z,6.73
2019-03-01T17:54:22.243Z,11.87
2019-03-01T17:57:10.772Z,26.20
2019-03-01T17:59:39.649Z,9.93
2019-03-01T18:02:14.701Z,7.03
2019-03-01T18:04:49.326Z,8.60
2019-03-01T18:07:18.362Z,7.27
2019-03-01T18:12:42.788Z,9.10
2019-03-01T18:15:24.106Z,6.77
2019-03-01T18:18:08.661Z,7.83
2019-03-01T18:20:48.548Z,7.27
2019-03-01T18:23:29.320Z,6.37
2019-03-01T18:26:10.230Z,6.93
2019-03-01T18:28:51.466Z,6.00
2019-03-01T18:31:34.788Z,6.03
2019-03-01T18:34:15.682Z,5.00
2019-03-01T18:36:56.167Z,5.10
2019-03-01T18:39:38.262Z,5.00
2019-03-01T18:42:19.398Z,6.43
2019-03-01T18:45:03.578Z,5.50
2019-03-01T18:47:43.054Z,6.83
2019-03-01T18:50:27.753Z,4.87
2019-03-01T18:53:07.566Z,5.30
2019-03-01T18:55:36.612Z,5.50
2019-03-01T18:58:05.756Z,5.57
2019-03-01T19:00:36.923Z,4.90
2019-03-01T19:03:06.466Z,5.20
2019-03-01T19:05:36.743Z,5.10
2019-03-01T19:08:06.560Z,6.17
2019-03-01T19:10:35.782Z,5.00
2019-03-01T19:13:05.211Z,5.27
2019-03-01T19:15:34.590Z,4.63
2019-03-01T19:18:03.884Z,4.03
2019-03-01T19:20:33.322Z,4.43
2019-03-01T19:23:02.496Z,5.10
2019-03-01T19:25:31.560Z,4.13
2019-03-01T19:28:00.496Z,4.97
2019-03-01T19:30:29.637Z,4.33
2019-03-01T19:32:58.855Z,5.47
2019-03-01T19:35:30.029Z,4.93
2019-03-01T19:37:59.080Z,5.63
2019-03-01T19:40:28.207Z,7.60
2019-03-01T19:42:57.467Z,4.67
2019-03-01T19:45:26.292Z,4.63
2019-03-01T19:48:01.284Z,4.77
2019-03-01T19:50:26.010Z,4.80
2019-03-01T19:52:55.309Z,4.93
2019-03-01T19:55:24.511Z,6.70
2019-03-01T19:57:53.670Z,8.10
2019-03-01T20:00:24.064Z,5.10
2019-03-01T20:02:53.248Z,5.23
2019-03-01T20:05:23.994Z,5.37
2019-03-01T20:07:54.776Z,5.40
2019-03-01T20:10:24.207Z,4.87
2019-03-01T20:12:53.295Z,5.10
2019-03-01T20:15:22.997Z,5.47
2019-03-01T20:17:52.300Z,7.17
2019-03-01T20:20:21.594Z,4.73
2019-03-01T20:22:54.369Z,4.80
2019-03-01T20:25:21.607Z,5.10
2019-03-01T20:27:50.799Z,4.70
2019-03-01T20:30:28.740Z,4.60
2019-03-01T20:32:52.346Z,4.90
2019-03-01T20:35:21.611Z,5.00
2019-03-01T20:37:50.703Z,5.07
2019-03-01T20:40:22.736Z,5.83
2019-03-01T20:42:50.899Z,4.50
2019-03-01T20:45:22.235Z,6.07
2019-03-01T20:47:53.506Z,4.50
2019-03-01T20:50:22.373Z,5.10
2019-03-01T20:52:51.565Z,5.80
2019-03-01T20:55:23.940Z,5.53
2019-03-01T20:57:54.513Z,4.97
2019-03-01T21:00:26.141Z,5.10
2019-03-01T21:02:54.475Z,4.43
2019-03-01T21:05:24.990Z,5.03
2019-03-01T21:07:54.920Z,5.80
2019-03-01T21:10:24.143Z,4.90
2019-03-01T21:12:53.134Z,5.87
2019-03-01T21:15:22.327Z,5.13
2019-03-01T21:17:52.998Z,5.30
2019-03-01T21:20:22.438Z,5.30
2019-03-01T21:22:55.345Z,5.67
2019-03-01T21:25:24.558Z,6.50
2019-03-01T21:27:53.864Z,7.10
2019-03-01T21:30:24.942Z,5.83
2019-03-01T21:32:54.468Z,5.27
2019-03-01T21:35:23.587Z,5.07
2019-03-01T21:37:54.089Z,5.17
2019-03-01T21:40:23.422Z,5.87
2019-03-01T21:42:56.024Z,5.33
2019-03-01T21:45:31.821Z,4.93
2019-03-01T21:48:01.454Z,5.67
2019-03-01T21:50:32.169Z,5.23
2019-03-01T21:53:08.434Z,5.20
2019-03-01T21:55:40.127Z,5.73
2019-03-01T21:58:46.666Z,5.17
2019-03-01T22:01:15.577Z,5.53
2019-03-01T22:03:45.040Z,5.83
2019-03-01T22:06:14.273Z,5.77
2019-03-01T22:08:48.701Z,5.73
2019-03-01T22:11:17.037Z,5.53
2019-03-01T22:13:46.255Z,5.10
2019-03-01T22:16:15.371Z,5.53
2019-03-01T22:18:44.602Z,5.53
2019-03-01T22:21:16.970Z,5.20
2019-03-01T22:23:47.700Z,4.90
2019-03-01T22:26:16.174Z,5.37
2019-03-01T22:28:45.331Z,5.10
2019-03-01T22:31:14.675Z,5.13
2019-03-01T22:33:43.959Z,5.53
2019-03-01T22:36:15.330Z,5.47
2019-03-01T22:38:44.054Z,5.53
2019-03-01T22:41:13.425Z,5.67
2019-03-01T22:43:43.319Z,5.53
2019-03-01T22:46:16.316Z,5.60
2019-03-01T22:48:48.961Z,5.97
2019-03-01T22:51:17.954Z,5.33
2019-03-01T22:53:48.690Z,5.10
2019-03-01T22:56:18.068Z,5.27
2019-03-01T22:58:47.895Z,5.00
2019-03-01T23:01:34.659Z,6.43
2019-03-01T23:04:05.620Z,4.87
2019-03-01T23:06:35.009Z,5.03
2019-03-01T23:09:10.666Z,5.17
2019-03-01T23:11:38.510Z,4.97
2019-03-01T23:14:07.691Z,4.93
2019-03-01T23:16:36.881Z,5.60
2019-03-01T23:19:05.796Z,4.90
2019-03-01T23:21:36.013Z,5.17
2019-03-01T23:24:05.333Z,5.23
2019-03-01T23:26:34.202Z,5.10
2019-03-01T23:29:03.209Z,5.43
2019-03-01T23:31:32.042Z,5.40
2019-03-01T23:34:03.625Z,6.83
2019-03-01T23:36:31.700Z,4.60
2019-03-01T23:39:00.687Z,6.53
2019-03-01T23:41:29.642Z,5.67
2019-03-01T23:43:58.491Z,6.10
2019-03-01T23:46:28.602Z,5.57
2019-03-01T23:49:06.029Z,6.10
2019-03-01T23:51:28.440Z,4.80
2019-03-01T23:53:57.353Z,5.13
2019-03-01T23:56:26.800Z,5.70
2019-03-01T23:58:57.208Z,4.97
